Time;durP1;ratioP1;P1;durP2;ratioP2;P2;SDS_P1;SDS_P2;PMS_P1;PMS_P2;Temp;Humidity;BMP_temperature;BMP_pressure;BME280_temperature;BME280_humidity;BME280_pressure;Samples;Min_cycle;Max_cycle;Signal;HPM_P1;HPM_P2
2023/03/12 00:00:10;;;;;;;5.18;4.28;;;6.60;99.90;;;;;;5035774;28;20513;-61
2023/03/12 00:02:37;;;;;;;6.07;3.97;;;6.60;99.90;;;;;;5029618;28;20095;-60
2023/03/12 00:05:04;;;;;;;6.78;4.65;;;6.70;99.90;;;;;;5032938;28;20049;-60
2023/03/12 00:07:31;;;;;;;7.10;4.05;;;6.70;99.90;;;;;;5038582;28;20048;-60
2023/03/12 00:09:58;;;;;;;8.68;4.13;;;6.70;99.90;;;;;;5032669;28;20140;-60
2023/03/12 00:12:24;;;;;;;5.78;3.88;;;6.80;99.90;;;;;;5034730;28;20053;-60
2023/03/12 00:14:51;;;;;;;5.65;3.75;;;6.80;99.90;;;;;;5033933;28;20124;-60
2023/03/12 00:17:18;;;;;;;8.38;3.60;;;6.80;99.90;;;;;;5032640;28;20052;-61
2023/03/12 00:19:45;;;;;;;5.30;3.97;;;6.80;99.90;;;;;;5039729;28;20044;-61
2023/03/12 00:22:12;;;;;;;4.97;3.38;;;6.90;99.90;;;;;;5028455;28;20056;-60
2023/03/12 00:24:38;;;;;;;5.05;3.80;;;6.90;99.90;;;;;;5000466;28;20051;-59
2023/03/12 00:27:06;;;;;;;6.45;4.00;;;7.00;99.90;;;;;;5032187;28;20060;-60
2023/03/12 00:29:32;;;;;;;5.88;4.05;;;7.00;99.90;;;;;;5040601;28;20767;-59
2023/03/12 00:31:59;;;;;;;4.10;3.60;;;7.00;99.90;;;;;;5041180;28;20049;-60
2023/03/12 00:34:26;;;;;;;6.35;3.97;;;7.00;99.90;;;;;;5035688;28;20201;-61
2023/03/12 00:36:52;;;;;;;5.88;4.13;;;7.10;99.90;;;;;;5039841;28;20735;-60
2023/03/12 00:39:19;;;;;;;5.90;4.45;;;7.10;99.90;;;;;;5038614;28;20056;-61
2023/03/12 00:41:46;;;;;;;4.65;3.40;;;7.20;99.90;;;;;;5041824;28;20049;-60
2023/03/12 00:44:13;;;;;;;6.65;3.83;;;7.20;99.90;;;;;;5045150;28;20150;-60
2023/03/12 00:46:39;;;;;;;11.13;5.15;;;7.20;99.90;;;;;;5038526;28;20045;-60
2023/03/12 00:49:06;;;;;;;9.00;3.85;;;7.30;99.90;;;;;;5045742;28;20067;-60
2023/03/12 00:51:33;;;;;;;6.47;4.50;;;7.30;99.90;;;;;;5042761;28;20444;-59
2023/03/12 00:54:00;;;;;;;9.88;4.63;;;7.40;99.90;;;;;;5039792;28;20055;-61
2023/03/12 07:45:39;;;;;;;34.65;6.20;;;8.80;99.90;;;;;;4416424;28;20044;-62
2023/03/12 07:48:06;;;;;;;41.65;5.80;;;8.90;99.90;;;;;;5050331;28;20045;-60
2023/03/12 07:50:33;;;;;;;44.95;8.93;;;8.90;99.90;;;;;;5046829;28;20041;-60
2023/03/12 07:53:00;;;;;;;44.63;5.97;;;8.90;99.90;;;;;;5051563;28;20045;-60
2023/03/12 07:55:27;;;;;;;37.97;5.93;;;9.00;99.90;;;;;;5051342;28;20132;-59
2023/03/12 08:05:23;;;;;;;30.23;5.40;;;9.20;99.90;;;;;;5035491;28;20053;-60
2023/03/12 08:07:51;;;;;;;41.83;7.28;;;9.30;99.90;;;;;;5039309;28;20041;-60
2023/03/12 08:10:20;;;;;;;37.53;6.00;;;9.30;99.90;;;;;;5024292;28;20457;-62
2023/03/12 08:12:47;;;;;;;43.15;7.15;;;9.40;99.90;;;;;;5026455;28;20045;-61
2023/03/12 08:15:15;;;;;;;41.53;8.48;;;9.40;99.90;;;;;;5034159;28;20454;-60
2023/03/12 08:17:41;;;;;;;32.65;6.68;;;9.50;99.90;;;;;;5031832;28;20128;-60
2023/03/12 08:20:09;;;;;;;36.10;6.22;;;9.50;99.90;;;;;;5030536;28;20064;-61
2023/03/12 08:22:36;;;;;;;36.92;6.63;;;9.60;99.90;;;;;;4993273;28;20038;-61
2023/03/12 08:25:03;;;;;;;48.05;6.90;;;9.60;99.90;;;;;;5022812;28;20137;-60
2023/03/12 08:27:30;;;;;;;43.90;6.05;;;9.60;99.90;;;;;;5008040;28;20049;-61
2023/03/12 08:29:57;;;;;;;40.60;6.22;;;9.70;99.90;;;;;;5030823;28;20476;-61
2023/03/12 08:32:23;;;;;;;30.00;5.25;;;9.80;99.90;;;;;;5021868;28;20052;-61
2023/03/12 08:34:50;;;;;;;38.05;6.72;;;9.80;99.90;;;;;;5021994;28;20049;-61
2023/03/12 08:37:17;;;;;;;34.65;5.70;;;9.80;99.90;;;;;;5024986;28;20175;-61
2023/03/12 08:39:44;;;;;;;44.90;9.27;;;9.80;99.90;;;;;;5018745;28;20205;-60
2023/03/12 08:42:10;;;;;;;24.58;5.47;;;9.80;99.90;;;;;;5024936;28;20104;-59
2023/03/12 08:44:37;;;;;;;37.08;7.10;;;9.90;99.90;;;;;;5010940;28;20129;-60
2023/03/12 08:47:04;;;;;;;44.50;6.45;;;9.90;99.90;;;;;;5031248;28;20045;-60
2023/03/12 08:49:31;;;;;;;32.15;6.55;;;10.00;99.90;;;;;;5033589;28;20514;-59
2023/03/12 08:51:58;;;;;;;45.45;6.30;;;10.10;99.90;;;;;;5022249;28;20056;-61
2023/03/12 08:54:24;;;;;;;32.35;6.82;;;10.20;99.90;;;;;;5029240;28;20144;-60
2023/03/12 08:56:51;;;;;;;36.10;6.82;;;10.20;99.90;;;;;;5018924;28;20128;-59
2023/03/12 08:59:22;;;;;;;39.67;6.90;;;10.30;99.90;;;;;;5018263;28;20468;-59
2023/03/12 09:01:49;;;;;;;37.33;7.28;;;10.40;99.90;;;;;;5022547;28;20077;-60
2023/03/12 09:04:16;;;;;;;46.15;7.53;;;10.40;99.90;;;;;;5025832;28;20049;-62
2023/03/12 09:06:42;;;;;;;33.55;5.90;;;10.40;99.90;;;;;;5010238;28;20046;-60
2023/03/12 09:09:09;;;;;;;34.80;5.50;;;10.50;99.90;;;;;;5025621;28;20041;-61
2023/03/12 09:11:38;;;;;;;33.00;8.40;;;10.50;99.90;;;;;;5031195;28;20133;-61
2023/03/12 09:14:18;;;;;;;41.15;6.15;;;10.70;99.90;;;;;;5046989;28;20045;-59
2023/03/12 09:17:05;;;;;;;44.90;6.50;;;10.70;99.90;;;;;;5034599;28;20042;-60
2023/03/12 09:19:32;;;;;;;37.03;6.10;;;10.70;99.90;;;;;;5032288;28;20047;-60
2023/03/12 09:21:58;;;;;;;23.55;5.50;;;10.70;99.90;;;;;;5029172;28;20089;-59
2023/03/12 09:24:25;;;;;;;43.25;7.18;;;10.70;99.90;;;;;;5021646;28;20396;-59
2023/03/12 09:26:52;;;;;;;32.85;7.55;;;10.70;99.90;;;;;;5025942;28;20502;-59
2023/03/12 09:29:19;;;;;;;34.30;5.80;;;10.80;99.90;;;;;;5025603;28;20519;-60
2023/03/12 09:31:45;;;;;;;34.92;5.93;;;10.80;99.90;;;;;;5027822;28;20083;-60
2023/03/12 09:34:12;;;;;;;38.03;9.18;;;10.80;99.90;;;;;;5016914;28;20046;-61
2023/03/12 09:36:39;;;;;;;32.15;7.07;;;10.80;99.90;;;;;;5026777;28;20471;-60
2023/03/12 09:39:06;;;;;;;39.25;6.75;;;10.80;99.90;;;;;;5019934;28;20096;-59
2023/03/12 09:41:36;;;;;;;31.63;6.20;;;10.80;99.90;;;;;;5026372;28;20060;-59
2023/03/12 09:44:21;;;;;;;37.05;6.53;;;10.70;99.90;;;;;;5021914;28;20042;-60
2023/03/12 09:46:51;;;;;;;37.15;5.38;;;10.70;99.90;;;;;;5009100;28;20045;-60
2023/03/12 09:49:27;;;;;;;26.00;5.18;;;10.80;99.90;;;;;;5006983;28;20120;-60
2023/03/12 09:51:55;;;;;;;36.63;5.80;;;10.90;99.90;;;;;;5021232;28;20064;-60
2023/03/12 09:54:25;;;;;;;27.05;5.47;;;10.90;99.90;;;;;;5009011;28;20041;-62
2023/03/12 09:56:52;;;;;;;35.13;6.18;;;10.90;99.90;;;;;;5020709;28;20550;-60
2023/03/12 09:59:18;;;;;;;27.30;5.40;;;10.90;99.90;;;;;;5004646;28;20053;-60
2023/03/12 10:01:57;;;;;;;48.35;10.32;;;11.00;99.90;;;;;;5025256;28;20072;-61
2023/03/12 10:04:42;;;;;;;37.60;6.78;;;11.00;99.90;;;;;;4994103;28;20045;-59
2023/03/12 10:07:33;;;;;;;40.65;6.13;;;11.00;99.90;;;;;;5007222;28;20572;-61
2023/03/12 10:10:06;;;;;;;32.95;5.18;;;11.10;99.90;;;;;;5002984;28;20073;-63
2023/03/12 10:12:44;;;;;;;30.58;5.80;;;11.20;99.90;;;;;;5004353;28;20046;-61
2023/03/12 10:15:34;;;;;;;34.58;6.20;;;11.10;99.90;;;;;;5016169;28;20053;-61
2023/03/12 10:18:30;;;;;;;33.25;5.70;;;11.20;99.90;;;;;;5010199;28;20049;-57
2023/03/12 10:21:09;;;;;;;38.03;5.68;;;11.20;99.90;;;;;;5004719;28;20109;-59
2023/03/12 10:24:07;;;;;;;32.25;6.05;;;11.30;99.90;;;;;;5023309;28;20072;-60
2023/03/12 10:26:42;;;;;;;35.95;6.55;;;11.30;99.90;;;;;;4998927;28;20570;-60
2023/03/12 10:29:19;;;;;;;39.15;5.55;;;11.30;99.90;;;;;;5006683;28;20049;-61
2023/03/12 10:31:56;;;;;;;30.05;4.82;;;11.40;99.90;;;;;;4997577;28;20426;-60
2023/03/12 10:34:31;;;;;;;33.78;6.38;;;11.40;99.90;;;;;;5009234;28;20103;-59
2023/03/12 10:37:21;;;;;;;38.55;5.82;;;11.60;99.90;;;;;;4732261;28;10001390;-59
2023/03/12 10:39:48;;;;;;;33.40;4.97;;;11.70;99.90;;;;;;5022719;28;20272;-60
2023/03/12 10:42:20;;;;;;;31.15;5.70;;;11.60;99.90;;;;;;5017025;28;20088;-61
2023/03/12 10:44:50;;;;;;;33.95;6.60;;;11.70;99.90;;;;;;5007282;28;20133;-60
2023/03/12 10:47:36;;;;;;;32.70;5.22;;;11.80;99.90;;;;;;5016778;28;20056;-59
2023/03/12 10:50:21;;;;;;;32.45;6.32;;;11.80;99.90;;;;;;5006659;28;20060;-60
2023/03/12 10:52:50;;;;;;;39.22;5.57;;;11.90;99.90;;;;;;5009872;28;20108;-60
2023/03/12 10:55:31;;;;;;;41.88;6.93;;;11.90;99.90;;;;;;5006364;28;20046;-61
2023/03/12 10:57:58;;;;;;;38.45;6.85;;;11.90;99.90;;;;;;5013929;28;20057;-60
2023/03/12 11:00:26;;;;;;;43.08;7.32;;;12.00;99.90;;;;;;5020699;28;20128;-60
2023/03/12 11:03:16;;;;;;;31.27;6.25;;;12.00;99.90;;;;;;5012605;28;20125;-60
2023/03/12 11:05:48;;;;;;;33.10;6.13;;;12.00;99.90;;;;;;5003446;28;20060;-61
2023/03/12 11:08:35;;;;;;;28.00;5.53;;;11.90;99.90;;;;;;5014809;28;20137;-60
2023/03/12 11:11:02;;;;;;;31.65;6.40;;;12.00;99.90;;;;;;5014667;28;20060;-60
2023/03/12 11:13:34;;;;;;;32.28;5.78;;;12.10;99.90;;;;;;5013161;28;20054;-61
2023/03/12 11:16:02;;;;;;;31.92;5.28;;;12.20;99.90;;;;;;4997054;28;20108;-60
2023/03/12 11:18:31;;;;;;;41.10;8.93;;;12.30;99.90;;;;;;4998303;28;20512;-60
2023/03/12 11:21:11;;;;;;;41.15;6.03;;;12.40;99.90;;;;;;5006279;28;20356;-62
2023/03/12 11:24:13;;;;;;;37.55;6.82;;;12.40;99.90;;;;;;4992593;28;20054;-61
2023/03/12 11:26:48;;;;;;;20.63;6.13;;;12.50;99.90;;;;;;5007302;28;20049;-60
2023/03/12 11:29:38;;;;;;;33.85;6.40;;;12.60;99.90;;;;;;4998860;28;20136;-61
2023/03/12 11:32:09;;;;;;;30.60;6.18;;;12.50;99.90;;;;;;4990596;28;20464;-61
2023/03/12 11:34:37;;;;;;;27.63;5.57;;;12.50;99.90;;;;;;5014814;28;20042;-61
2023/03/12 11:37:17;;;;;;;29.00;5.60;;;12.50;99.90;;;;;;5008590;28;20052;-61
2023/03/12 11:40:33;;;;;;;39.95;6.38;;;12.60;99.90;;;;;;5014270;28;20523;-60
2023/03/12 11:43:15;;;;;;;32.22;5.90;;;12.60;99.90;;;;;;4964901;28;20504;-60
2023/03/12 11:46:01;;;;;;;36.03;7.20;;;12.70;99.90;;;;;;5007687;28;20076;-60
2023/03/12 11:48:53;;;;;;;51.28;6.82;;;12.70;99.90;;;;;;5010960;28;20056;-59
2023/03/12 11:51:32;;;;;;;39.28;6.40;;;12.70;99.90;;;;;;5005862;28;20131;-60
2023/03/12 11:54:32;;;;;;;26.92;6.97;;;12.80;99.90;;;;;;5010423;28;20053;-60
2023/03/12 11:57:22;;;;;;;25.88;4.85;;;12.80;99.90;;;;;;5005409;28;20069;-61
2023/03/12 12:00:12;;;;;;;33.78;7.20;;;12.80;99.90;;;;;;4989227;28;20045;-60
2023/03/12 12:02:54;;;;;;;30.15;4.65;;;12.90;99.90;;;;;;5006230;28;20316;-61
2023/03/12 12:05:46;;;;;;;34.83;5.05;;;12.80;99.90;;;;;;5010779;28;20519;-61
2023/03/12 12:08:52;;;;;;;36.15;4.90;;;13.00;99.90;;;;;;5003269;28;20053;-61
2023/03/12 12:11:27;;;;;;;34.60;7.32;;;13.00;99.90;;;;;;4933099;28;20147;-59
2023/03/12 12:14:22;;;;;;;33.50;4.80;;;13.00;99.90;;;;;;5009073;28;20045;-60
2023/03/12 12:17:07;;;;;;;28.13;5.20;;;13.10;99.90;;;;;;4998316;28;20141;-60
2023/03/12 12:19:42;;;;;;;32.38;5.25;;;13.20;99.90;;;;;;5014235;28;20412;-61
2023/03/12 12:22:30;;;;;;;37.72;6.38;;;13.20;99.90;;;;;;5013383;28;20078;-59
2023/03/12 12:25:39;;;;;;;31.70;5.68;;;13.20;99.90;;;;;;5012594;28;20137;-60
2023/03/12 12:28:56;;;;;;;23.23;4.75;;;13.30;99.90;;;;;;5020479;28;20046;-61
2023/03/12 12:31:47;;;;;;;35.80;6.10;;;13.20;99.90;;;;;;4997496;28;20053;-61
2023/03/12 12:34:13;;;;;;;36.17;7.00;;;13.30;99.90;;;;;;5003147;28;20066;-60
2023/03/12 12:36:40;;;;;;;32.42;6.05;;;13.30;99.90;;;;;;5020895;28;20056;-59
2023/03/12 12:39:17;;;;;;;24.52;6.18;;;13.20;99.90;;;;;;4998617;28;20048;-59
2023/03/12 12:41:48;;;;;;;23.08;4.82;;;13.30;99.90;;;;;;5003274;28;20115;-60
2023/03/12 12:44:17;;;;;;;24.58;5.45;;;13.30;99.90;;;;;;4985810;28;20045;-61
2023/03/12 12:46:48;;;;;;;38.95;5.72;;;13.50;99.90;;;;;;5001760;28;20053;-60
2023/03/12 12:49:21;;;;;;;33.05;6.32;;;13.50;99.90;;;;;;5000383;28;20132;-60
2023/03/12 12:51:56;;;;;;;32.88;6.00;;;13.60;99.90;;;;;;5017122;28;20128;-60
2023/03/12 12:54:28;;;;;;;48.33;8.10;;;13.70;99.90;;;;;;5002008;28;20498;-61
2023/03/12 12:57:06;;;;;;;36.47;6.60;;;13.80;99.90;;;;;;5020190;28;20685;-60
2023/03/12 12:59:38;;;;;;;38.33;6.80;;;13.80;99.90;;;;;;5025237;28;20198;-60
2023/03/12 13:02:31;;;;;;;42.70;7.05;;;13.80;99.90;;;;;;5022151;28;20057;-60
2023/03/12 13:04:58;;;;;;;34.42;6.70;;;13.90;99.90;;;;;;4995564;28;20128;-60
2023/03/12 13:07:25;;;;;;;36.55;5.75;;;14.00;99.90;;;;;;5015089;28;20056;-60
2023/03/12 13:09:55;;;;;;;35.03;6.78;;;14.00;99.90;;;;;;5024564;28;20053;-61
2023/03/12 13:12:26;;;;;;;40.45;5.63;;;13.90;99.90;;;;;;5018095;28;20081;-60
2023/03/12 13:14:54;;;;;;;41.30;5.93;;;13.90;99.90;;;;;;4992939;28;20049;-60
2023/03/12 13:17:54;;;;;;;39.78;8.85;;;13.80;99.90;;;;;;5014495;28;20948;-61
2023/03/12 13:20:42;;;;;;;43.42;7.30;;;13.80;99.90;;;;;;5002322;28;20507;-61
2023/03/12 13:23:28;;;;;;;36.40;7.57;;;13.70;99.90;;;;;;4999230;28;20052;-61
2023/03/12 13:26:18;;;;;;;31.88;6.20;;;13.80;99.90;;;;;;5019334;28;20149;-61
2023/03/12 13:28:54;;;;;;;32.28;6.13;;;13.90;99.90;;;;;;5019362;28;20589;-61
2023/03/12 13:31:36;;;;;;;35.58;7.63;;;13.90;99.90;;;;;;5019405;28;20183;-61
2023/03/12 13:34:18;;;;;;;26.33;5.40;;;13.90;99.90;;;;;;5020660;28;20053;-61
2023/03/12 13:37:10;;;;;;;24.30;4.35;;;13.80;99.90;;;;;;5022934;28;20748;-61
2023/03/12 13:39:37;;;;;;;25.92;4.68;;;13.80;99.90;;;;;;4992616;28;20050;-61
2023/03/12 13:42:27;;;;;;;28.08;4.68;;;13.70;99.90;;;;;;5015607;28;20053;-61
2023/03/12 13:44:53;;;;;;;24.88;5.32;;;13.90;99.90;;;;;;5021219;28;20068;-60
2023/03/12 13:47:30;;;;;;;32.92;6.13;;;14.10;99.90;;;;;;5015192;28;20053;-62
2023/03/12 13:50:18;;;;;;;18.75;4.20;;;14.10;99.90;;;;;;4989437;28;20137;-61
2023/03/12 13:53:00;;;;;;;20.83;4.25;;;14.20;99.90;;;;;;5009681;28;20037;-60
2023/03/12 13:55:28;;;;;;;20.08;4.20;;;14.20;99.90;;;;;;5024926;28;20711;-60
2023/03/12 13:58:07;;;;;;;19.23;3.38;;;14.20;99.90;;;;;;5015277;28;20464;-61
2023/03/12 14:00:44;;;;;;;22.88;4.30;;;14.20;99.90;;;;;;5008974;28;20056;-61
2023/03/12 14:03:14;;;;;;;20.23;3.05;;;14.30;99.90;;;;;;4996502;28;20053;-60
2023/03/12 14:05:54;;;;;;;16.25;2.58;;;14.30;99.90;;;;;;5024367;28;20049;-59
2023/03/12 14:08:29;;;;;;;18.27;2.88;;;14.30;99.90;;;;;;4995524;28;20112;-60
2023/03/12 14:11:18;;;;;;;17.25;2.67;;;14.30;99.90;;;;;;5024684;28;20049;-60
2023/03/12 14:13:56;;;;;;;18.65;2.63;;;14.20;99.90;;;;;;4988743;28;20050;-62
2023/03/12 14:16:49;;;;;;;14.20;2.75;;;14.20;99.90;;;;;;5006903;28;20165;-60
2023/03/12 14:19:27;;;;;;;13.55;2.85;;;14.10;99.90;;;;;;5001499;28;20136;-60
2023/03/12 14:21:54;;;;;;;9.75;2.05;;;14.10;99.90;;;;;;5007801;28;20136;-61
2023/03/12 14:24:32;;;;;;;15.50;2.47;;;14.00;99.90;;;;;;5000872;28;20088;-60
2023/03/12 14:27:00;;;;;;;16.38;3.53;;;14.00;99.90;;;;;;4991407;28;20049;-59
2023/03/12 14:29:38;;;;;;;15.00;3.03;;;13.80;99.90;;;;;;5001403;28;20053;-61
2023/03/12 14:32:10;;;;;;;12.48;2.92;;;13.70;99.90;;;;;;4989890;28;20049;-61
2023/03/12 14:34:41;;;;;;;16.05;3.05;;;13.50;99.90;;;;;;5018609;28;20149;-59
2023/03/12 14:37:20;;;;;;;25.38;3.42;;;13.30;99.90;;;;;;5007504;28;20479;-62
2023/03/12 14:40:13;;;;;;;22.98;4.20;;;13.20;99.90;;;;;;5018302;28;20052;-58
2023/03/12 14:42:40;;;;;;;25.65;5.38;;;13.10;99.90;;;;;;4984645;28;20049;-59
2023/03/12 14:45:11;;;;;;;20.38;3.70;;;13.10;99.90;;;;;;5019900;28;20416;-59
2023/03/12 14:47:42;;;;;;;20.08;4.40;;;13.00;99.90;;;;;;5024507;28;20567;-59
2023/03/12 14:50:36;;;;;;;20.95;3.75;;;12.80;99.90;;;;;;5016223;28;20053;-59
2023/03/12 14:53:13;;;;;;;27.17;3.70;;;12.80;99.90;;;;;;5010322;28;20165;-60
2023/03/12 14:55:40;;;;;;;19.70;4.30;;;12.70;99.90;;;;;;5012731;28;20145;-58
2023/03/12 14:58:15;;;;;;;17.08;4.32;;;12.60;99.90;;;;;;5019578;28;20097;-58
2023/03/12 15:00:43;;;;;;;22.27;4.20;;;12.50;99.90;;;;;;4996693;28;20129;-61
2023/03/12 15:03:13;;;;;;;27.73;5.88;;;12.40;99.90;;;;;;4976780;28;20060;-58
2023/03/12 15:05:46;;;;;;;18.98;3.85;;;12.40;99.90;;;;;;4994676;28;20584;-58
2023/03/12 15:08:13;;;;;;;18.80;4.85;;;12.30;99.90;;;;;;5004570;28;20131;-57
2023/03/12 15:10:40;;;;;;;22.05;4.13;;;12.20;99.90;;;;;;4991705;28;20080;-61
2023/03/12 15:13:08;;;;;;;29.30;5.53;;;12.30;99.90;;;;;;5001892;28;20164;-61
2023/03/12 15:15:40;;;;;;;19.65;5.25;;;12.30;99.90;;;;;;4993182;28;20045;-60
2023/03/12 15:18:16;;;;;;;16.25;3.70;;;12.20;99.90;;;;;;5004335;28;20053;-60
2023/03/12 15:20:43;;;;;;;23.33;4.00;;;12.30;99.90;;;;;;5012229;28;20081;-62
2023/03/12 15:23:11;;;;;;;13.63;2.90;;;12.20;99.90;;;;;;5021467;28;20081;-59
2023/03/12 15:25:38;;;;;;;14.07;3.33;;;12.20;99.90;;;;;;5013834;28;20048;-60
2023/03/12 15:28:06;;;;;;;13.90;2.53;;;12.20;99.90;;;;;;5001123;28;20123;-59
2023/03/12 15:30:34;;;;;;;9.90;2.63;;;12.20;99.90;;;;;;4998535;28;20096;-60
2023/03/12 15:33:13;;;;;;;12.13;2.65;;;12.10;99.90;;;;;;5017906;28;20153;-60
2023/03/12 15:36:00;;;;;;;11.63;2.17;;;12.10;99.90;;;;;;5015978;28;20104;-60
2023/03/12 15:38:30;;;;;;;8.68;1.60;;;12.00;99.90;;;;;;5020431;28;20056;-60
2023/03/12 15:40:56;;;;;;;10.50;1.60;;;12.00;99.90;;;;;;4654077;28;10000175;-59
2023/03/12 15:43:26;;;;;;;11.70;1.98;;;11.90;99.90;;;;;;5001178;28;20467;-59
2023/03/12 15:46:01;;;;;;;14.43;1.85;;;11.90;99.90;;;;;;5000232;28;20153;-60
2023/03/12 15:48:32;;;;;;;8.98;2.05;;;12.00;99.90;;;;;;5015657;28;20077;-60
2023/03/12 15:50:59;;;;;;;7.75;1.80;;;12.00;99.90;;;;;;4998148;28;20527;-60
2023/03/12 15:53:29;;;;;;;10.35;1.83;;;11.90;99.90;;;;;;4992986;28;20052;-59
2023/03/12 15:56:09;;;;;;;11.75;2.05;;;11.90;99.90;;;;;;5010541;28;20049;-60
2023/03/12 15:58:37;;;;;;;12.43;2.65;;;11.90;99.90;;;;;;5015263;28;20053;-59
2023/03/12 16:01:11;;;;;;;16.38;4.05;;;11.90;99.90;;;;;;5021539;28;20609;-59
2023/03/12 16:03:38;;;;;;;11.82;2.55;;;11.90;99.90;;;;;;5018071;28;20053;-60
2023/03/12 16:06:24;;;;;;;22.60;3.25;;;11.90;99.90;;;;;;5024217;28;20085;-61
2023/03/12 16:08:54;;;;;;;7.97;2.28;;;11.90;99.90;;;;;;4990429;28;20065;-60
2023/03/12 16:11:23;;;;;;;14.45;2.05;;;11.80;99.90;;;;;;5024217;28;20080;-59
2023/03/12 16:13:51;;;;;;;11.60;1.70;;;11.70;99.90;;;;;;4999763;28;20045;-59
2023/03/12 16:16:17;;;;;;;9.23;1.58;;;11.70;99.90;;;;;;5005919;28;20053;-60
2023/03/12 16:18:44;;;;;;;9.35;1.88;;;11.70;99.90;;;;;;5015905;28;20072;-59
2023/03/12 16:21:11;;;;;;;13.85;2.20;;;11.70;99.90;;;;;;5024475;28;20055;-58
2023/03/12 16:23:38;;;;;;;7.95;2.47;;;11.70;99.90;;;;;;4998510;28;20052;-59
2023/03/12 16:26:05;;;;;;;7.35;2.00;;;11.60;99.90;;;;;;5025016;28;20072;-58
2023/03/12 16:28:33;;;;;;;16.95;3.15;;;11.50;99.90;;;;;;4998179;28;20084;-60
2023/03/12 16:31:00;;;;;;;18.67;3.65;;;11.60;99.90;;;;;;4992869;28;20053;-59
2023/03/12 16:33:27;;;;;;;9.40;2.58;;;11.50;99.90;;;;;;4995693;28;20046;-58
2023/03/12 16:35:54;;;;;;;10.18;2.70;;;11.50;99.90;;;;;;5008957;28;20053;-61
2023/03/12 16:38:21;;;;;;;12.15;2.70;;;11.50;99.90;;;;;;4983862;28;20045;-60
2023/03/12 16:40:49;;;;;;;14.63;2.30;;;11.50;99.90;;;;;;5029342;28;20084;-59
2023/03/12 16:43:23;;;;;;;10.20;2.88;;;11.40;99.90;;;;;;4989657;28;20053;-60
2023/03/12 16:45:50;;;;;;;17.60;2.60;;;11.40;99.90;;;;;;5017627;28;20069;-59
2023/03/12 16:48:22;;;;;;;16.05;2.45;;;11.40;99.90;;;;;;5003548;28;20426;-60
2023/03/12 16:50:53;;;;;;;11.30;2.67;;;11.30;99.90;;;;;;5022871;28;20048;-61
2023/03/12 16:53:20;;;;;;;13.27;2.28;;;11.20;99.90;;;;;;5021546;28;20053;-61
2023/03/12 16:55:50;;;;;;;11.10;2.40;;;11.30;99.90;;;;;;5022518;28;20497;-60
2023/03/12 16:58:17;;;;;;;8.88;2.83;;;11.30;99.90;;;;;;5008405;28;20088;-59
2023/03/12 17:00:45;;;;;;;14.48;3.47;;;11.30;99.90;;;;;;5003200;28;20148;-62
2023/03/12 17:03:36;;;;;;;24.33;3.85;;;11.20;99.90;;;;;;5004399;28;20052;-60
2023/03/12 17:06:05;;;;;;;14.48;3.03;;;11.20;99.90;;;;;;5016599;28;20128;-60
2023/03/12 17:08:31;;;;;;;7.72;2.13;;;11.10;99.90;;;;;;5021969;28;20428;-61
2023/03/12 17:10:58;;;;;;;15.55;4.32;;;11.10;99.90;;;;;;5015601;28;20485;-61
2023/03/12 17:13:26;;;;;;;11.82;3.13;;;11.10;99.90;;;;;;5002229;28;20059;-59
2023/03/12 17:15:53;;;;;;;13.48;2.80;;;11.10;99.90;;;;;;4981858;28;20056;-60
2023/03/12 17:18:21;;;;;;;13.82;2.35;;;11.00;99.90;;;;;;5015862;28;20085;-59
2023/03/12 17:20:50;;;;;;;19.50;6.00;;;11.00;99.90;;;;;;5019522;28;20051;-60
2023/03/12 17:23:17;;;;;;;15.63;2.85;;;10.90;99.90;;;;;;5019583;28;20053;-59
2023/03/12 17:25:44;;;;;;;15.50;3.40;;;10.80;99.90;;;;;;5019809;28;20050;-61
2023/03/12 17:28:12;;;;;;;16.75;3.20;;;10.80;99.90;;;;;;5012130;28;20084;-60
2023/03/12 17:30:39;;;;;;;16.13;3.13;;;10.80;99.90;;;;;;5011980;28;20077;-60
2023/03/12 17:33:11;;;;;;;15.70;2.50;;;10.80;99.90;;;;;;4996722;28;20045;-60
2023/03/12 17:35:38;;;;;;;16.63;3.13;;;10.80;99.90;;;;;;5017314;28;20116;-60
2023/03/12 17:38:05;;;;;;;16.23;3.17;;;10.80;99.90;;;;;;5016363;28;20053;-61
2023/03/12 17:40:32;;;;;;;12.48;2.15;;;10.80;99.90;;;;;;5016297;28;20133;-58
2023/03/12 17:42:59;;;;;;;16.92;2.58;;;10.80;99.90;;;;;;5014296;28;20132;-60
2023/03/12 17:45:26;;;;;;;11.68;2.72;;;10.70;99.90;;;;;;5000111;28;20104;-62
2023/03/12 17:47:53;;;;;;;14.18;3.17;;;10.70;99.90;;;;;;5026754;28;20056;-60
2023/03/12 17:50:19;;;;;;;21.00;3.67;;;10.70;99.90;;;;;;5018019;28;20072;-60
2023/03/12 17:52:46;;;;;;;17.33;3.50;;;10.70;99.90;;;;;;5019238;28;20053;-64
2023/03/12 17:55:13;;;;;;;19.83;4.15;;;10.70;99.90;;;;;;5001763;28;20055;-60
2023/03/12 17:57:40;;;;;;;32.00;6.53;;;10.60;99.90;;;;;;5028188;28;20053;-61
2023/03/12 18:00:10;;;;;;;22.77;5.13;;;10.60;99.90;;;;;;5014046;28;20137;-61
2023/03/12 18:02:38;;;;;;;22.17;4.40;;;10.60;99.90;;;;;;5020396;28;20052;-59
2023/03/12 18:05:05;;;;;;;29.73;5.00;;;10.60;99.90;;;;;;5020757;28;20052;-60
2023/03/12 18:07:32;;;;;;;22.38;5.30;;;10.60;99.90;;;;;;5019497;28;20093;-60
2023/03/12 18:09:59;;;;;;;25.30;4.50;;;10.50;99.90;;;;;;5013112;28;20160;-60
2023/03/12 18:12:26;;;;;;;24.33;4.40;;;10.50;99.90;;;;;;5021704;28;20049;-61
2023/03/12 18:14:52;;;;;;;30.80;5.50;;;10.40;99.90;;;;;;5009621;28;20057;-59
2023/03/12 18:17:19;;;;;;;31.17;5.05;;;10.40;99.90;;;;;;4668591;28;10000607;-61
2023/03/12 18:19:46;;;;;;;33.38;5.57;;;10.50;99.90;;;;;;5025420;28;20050;-61
2023/03/12 18:22:13;;;;;;;35.83;5.72;;;10.40;99.90;;;;;;5013682;28;20144;-60
2023/03/12 18:24:40;;;;;;;33.97;5.10;;;10.40;99.90;;;;;;5025078;28;20107;-61
2023/03/12 18:27:07;;;;;;;27.35;4.35;;;10.40;99.90;;;;;;5022508;28;20480;-62
2023/03/12 18:29:35;;;;;;;35.53;4.93;;;10.40;99.90;;;;;;5006909;28;20046;-61
2023/03/12 18:32:03;;;;;;;43.30;8.23;;;10.40;99.90;;;;;;5016444;28;20241;-60
2023/03/12 18:34:29;;;;;;;32.63;5.55;;;10.40;99.90;;;;;;5022779;28;20717;-60
2023/03/12 18:36:56;;;;;;;19.60;3.95;;;10.40;99.90;;;;;;5001258;28;20088;-59
2023/03/12 18:39:23;;;;;;;35.55;6.15;;;10.40;99.90;;;;;;5015128;28;20052;-61
2023/03/12 18:41:50;;;;;;;37.28;5.68;;;10.40;99.90;;;;;;5017042;28;20140;-61
2023/03/12 18:44:17;;;;;;;31.92;5.13;;;10.40;99.90;;;;;;5010830;28;20137;-62
2023/03/12 18:46:43;;;;;;;31.63;5.07;;;10.40;99.90;;;;;;5016494;28;20128;-60
2023/03/12 18:49:13;;;;;;;24.63;4.55;;;10.40;99.90;;;;;;5016394;28;20045;-61
2023/03/12 18:51:40;;;;;;;30.77;5.00;;;10.40;99.90;;;;;;5015531;28;20141;-60
2023/03/12 18:54:06;;;;;;;28.92;4.78;;;10.40;99.90;;;;;;5017080;28;20071;-62
2023/03/12 18:56:36;;;;;;;32.60;5.15;;;10.40;99.90;;;;;;5013214;28;20077;-61
2023/03/12 18:59:03;;;;;;;27.17;5.68;;;10.40;99.90;;;;;;5017797;28;20145;-62
2023/03/12 19:01:30;;;;;;;35.90;4.90;;;10.40;99.90;;;;;;5016730;28;20532;-60
2023/03/12 19:03:57;;;;;;;35.90;4.85;;;10.50;99.90;;;;;;5015513;28;20398;-60
2023/03/12 19:06:24;;;;;;;42.85;8.75;;;10.50;99.90;;;;;;5000992;28;20061;-60
2023/03/12 19:08:51;;;;;;;26.88;6.13;;;10.40;99.90;;;;;;5018481;28;20041;-59
2023/03/12 19:11:18;;;;;;;32.28;8.75;;;10.40;99.90;;;;;;5022194;28;20049;-60
2023/03/12 19:13:48;;;;;;;41.67;8.70;;;10.40;99.90;;;;;;5014655;28;20055;-61
2023/03/12 19:16:17;;;;;;;39.38;7.07;;;10.40;99.90;;;;;;5001013;28;20560;-62
2023/03/12 19:18:44;;;;;;;27.92;4.82;;;10.30;99.90;;;;;;5014807;28;20127;-60
2023/03/12 19:21:11;;;;;;;29.17;5.45;;;10.30;99.90;;;;;;5015486;28;20068;-61
2023/03/12 19:23:37;;;;;;;25.83;5.22;;;10.20;99.90;;;;;;5018042;28;20060;-62
2023/03/12 19:26:04;;;;;;;29.42;4.93;;;10.20;99.90;;;;;;5013345;28;20404;-61
2023/03/12 19:28:31;;;;;;;20.35;4.55;;;10.20;99.90;;;;;;4991721;28;20065;-61
2023/03/12 19:31:02;;;;;;;26.80;5.40;;;10.20;99.90;;;;;;5021191;28;20045;-60
2023/03/12 19:33:29;;;;;;;28.77;4.95;;;10.10;99.90;;;;;;5016856;28;20099;-60
2023/03/12 19:35:56;;;;;;;26.48;6.20;;;10.10;99.90;;;;;;5016437;28;20421;-61
2023/03/12 19:38:32;;;;;;;32.17;5.18;;;10.10;99.90;;;;;;4994654;28;20068;-61
2023/03/12 19:41:03;;;;;;;20.05;5.50;;;10.10;99.90;;;;;;4999195;28;20575;-61
2023/03/12 19:43:32;;;;;;;23.73;5.20;;;10.20;99.90;;;;;;4998182;28;20460;-61
2023/03/12 19:46:01;;;;;;;19.95;5.55;;;10.10;99.90;;;;;;5007714;28;20157;-60
2023/03/12 19:48:28;;;;;;;17.55;3.08;;;10.10;99.90;;;;;;4984367;28;20046;-60
2023/03/12 19:50:54;;;;;;;15.05;3.75;;;10.20;99.90;;;;;;4984642;28;20157;-61
2023/03/12 19:53:21;;;;;;;15.20;3.13;;;10.20;99.90;;;;;;4983188;28;20046;-61
2023/03/12 19:55:48;;;;;;;17.25;3.90;;;10.20;99.90;;;;;;4985067;28;20514;-60
2023/03/12 19:58:15;;;;;;;16.90;3.63;;;10.20;99.90;;;;;;4642298;28;10000639;-61
2023/03/12 20:00:42;;;;;;;11.10;3.45;;;10.20;99.90;;;;;;4984217;28;20042;-61